sensor_id;sensor_type;location;lat;lon;timestamp;temperature;humidity
10903;DHT22;5504;47.312;11.060;2023-07-29T00:00:34;18.90;98.70
10903;DHT22;5504;47.312;11.060;2023-07-29T00:03:00;19.00;98.80
10903;DHT22;5504;47.312;11.060;2023-07-29T00:05:25;19.00;98.40
10903;DHT22;5504;47.312;11.060;2023-07-29T00:07:52;18.90;98.40
10903;DHT22;5504;47.312;11.060;2023-07-29T00:10:17;18.90;98.50
10903;DHT22;5504;47.312;11.060;2023-07-29T00:12:43;18.70;98.40
10903;DHT22;5504;47.312;11.060;2023-07-29T00:15:09;18.60;98.30
10903;DHT22;5504;47.312;11.060;2023-07-29T00:17:35;18.50;98.40
10903;DHT22;5504;47.312;11.060;2023-07-29T00:20:01;18.50;98.40
10903;DHT22;5504;47.312;11.060;2023-07-29T00:22:26;18.50;98.40
10903;DHT22;5504;47.312;11.060;2023-07-29T00:24:53;18.50;98.50
10903;DHT22;5504;47.312;11.060;2023-07-29T00:27:23;18.60;98.30
10903;DHT22;5504;47.312;11.060;2023-07-29T00:29:49;18.70;98.50
10903;DHT22;5504;47.312;11.060;2023-07-29T00:32:14;18.70;98.70
10903;DHT22;5504;47.312;11.060;2023-07-29T00:34:40;18.80;98.80
10903;DHT22;5504;47.312;11.060;2023-07-29T00:37:06;18.80;98.70
10903;DHT22;5504;47.312;11.060;2023-07-29T00:39:32;18.70;98.80
10903;DHT22;5504;47.312;11.060;2023-07-29T00:41:58;18.80;99.10
10903;DHT22;5504;47.312;11.060;2023-07-29T00:44:24;18.70;98.90
10903;DHT22;5504;47.312;11.060;2023-07-29T00:46:52;18.60;98.80
10903;DHT22;5504;47.312;11.060;2023-07-29T00:49:19;18.60;99.10
10903;DHT22;5504;47.312;11.060;2023-07-29T00:51:45;18.60;98.90
10903;DHT22;5504;47.312;11.060;2023-07-29T00:54:11;18.60;98.80
10903;DHT22;5504;47.312;11.060;2023-07-29T00:56:37;18.60;98.70
10903;DHT22;5504;47.312;11.060;2023-07-29T00:59:03;18.60;98.50
10903;DHT22;5504;47.312;11.060;2023-07-29T01:01:30;18.50;98.30
10903;DHT22;5504;47.312;11.060;2023-07-29T01:03:56;18.50;98.50
10903;DHT22;5504;47.312;11.060;2023-07-29T01:09:17;18.50;98.90
10903;DHT22;5504;47.312;11.060;2023-07-29T01:15:19;18.40;99.30
10903;DHT22;5504;47.312;11.060;2023-07-29T01:18:04;18.40;99.60
10903;DHT22;5504;47.312;11.060;2023-07-29T01:20:33;18.50;99.60
10903;DHT22;5504;47.312;11.060;2023-07-29T01:22:59;18.40;99.40
10903;DHT22;5504;47.312;11.060;2023-07-29T01:25:25;18.40;99.30
10903;DHT22;5504;47.312;11.060;2023-07-29T01:27:51;18.30;99.10
10903;DHT22;5504;47.312;11.060;2023-07-29T01:30:19;18.30;99.30
10903;DHT22;5504;47.312;11.060;2023-07-29T01:35:29;18.50;99.40
10903;DHT22;5504;47.312;11.060;2023-07-29T01:38:05;18.50;99.30
10903;DHT22;5504;47.312;11.060;2023-07-29T01:40:33;18.50;99.10
10903;DHT22;5504;47.312;11.060;2023-07-29T01:42:59;18.50;99.10
10903;DHT22;5504;47.312;11.060;2023-07-29T01:45:25;18.50;99.00
10903;DHT22;5504;47.312;11.060;2023-07-29T01:47:51;18.50;98.80
10903;DHT22;5504;47.312;11.060;2023-07-29T01:50:17;18.50;98.70
10903;DHT22;5504;47.312;11.060;2023-07-29T01:52:42;18.40;98.60
10903;DHT22;5504;47.312;11.060;2023-07-29T01:55:08;18.40;98.60
10903;DHT22;5504;47.312;11.060;2023-07-29T01:57:34;18.40;98.50
10903;DHT22;5504;47.312;11.060;2023-07-29T02:00:00;18.30;98.50
10903;DHT22;5504;47.312;11.060;2023-07-29T02:02:25;18.30;98.40
10903;DHT22;5504;47.312;11.060;2023-07-29T02:04:51;18.30;98.40
10903;DHT22;5504;47.312;11.060;2023-07-29T02:07:20;18.20;98.30
10903;DHT22;5504;47.312;11.060;2023-07-29T02:09:46;18.20;98.40
10903;DHT22;5504;47.312;11.060;2023-07-29T02:12:12;18.10;98.40
10903;DHT22;5504;47.312;11.060;2023-07-29T02:14:37;18.10;98.50
10903;DHT22;5504;47.312;11.060;2023-07-29T02:17:03;18.00;98.50
10903;DHT22;5504;47.312;11.060;2023-07-29T02:19:29;18.00;98.50
10903;DHT22;5504;47.312;11.060;2023-07-29T02:21:55;18.00;98.70
10903;DHT22;5504;47.312;11.060;2023-07-29T02:24:20;18.00;98.80
10903;DHT22;5504;47.312;11.060;2023-07-29T02:26:46;17.90;98.90
10903;DHT22;5504;47.312;11.060;2023-07-29T02:29:11;17.90;99.20
10903;DHT22;5504;47.312;11.060;2023-07-29T02:31:37;17.90;99.40
10903;DHT22;5504;47.312;11.060;2023-07-29T02:34:04;17.90;99.60
10903;DHT22;5504;47.312;11.060;2023-07-29T02:36:29;17.90;99.60
10903;DHT22;5504;47.312;11.060;2023-07-29T02:38:55;17.90;99.60
10903;DHT22;5504;47.312;11.060;2023-07-29T02:41:21;17.90;99.40
10903;DHT22;5504;47.312;11.060;2023-07-29T02:43:50;17.90;99.40
10903;DHT22;5504;47.312;11.060;2023-07-29T02:46:16;18.00;99.60
10903;DHT22;5504;47.312;11.060;2023-07-29T02:48:42;18.00;99.40
10903;DHT22;5504;47.312;11.060;2023-07-29T02:51:08;18.00;99.50
10903;DHT22;5504;47.312;11.060;2023-07-29T02:53:34;18.00;99.50
10903;DHT22;5504;47.312;11.060;2023-07-29T02:56:02;18.00;99.50
10903;DHT22;5504;47.312;11.060;2023-07-29T02:58:28;18.10;99.90
10903;DHT22;5504;47.312;11.060;2023-07-29T03:01:03;18.10;99.60
10903;DHT22;5504;47.312;11.060;2023-07-29T03:03:30;18.20;99.50
10903;DHT22;5504;47.312;11.060;2023-07-29T03:06:03;18.10;99.20
10903;DHT22;5504;47.312;11.060;2023-07-29T03:08:29;18.10;99.20
10903;DHT22;5504;47.312;11.060;2023-07-29T03:10:56;18.10;99.20
10903;DHT22;5504;47.312;11.060;2023-07-29T03:13:22;18.10;99.40
10903;DHT22;5504;47.312;11.060;2023-07-29T03:15:47;18.10;99.50
10903;DHT22;5504;47.312;11.060;2023-07-29T03:18:14;18.10;99.40
10903;DHT22;5504;47.312;11.060;2023-07-29T03:20:40;18.10;99.20
10903;DHT22;5504;47.312;11.060;2023-07-29T03:23:06;18.00;99.40
10903;DHT22;5504;47.312;11.060;2023-07-29T03:25:32;18.00;99.60
10903;DHT22;5504;47.312;11.060;2023-07-29T03:27:57;18.10;99.70
10903;DHT22;5504;47.312;11.060;2023-07-29T03:30:23;18.10;99.70
10903;DHT22;5504;47.312;11.060;2023-07-29T03:32:49;18.20;99.60
10903;DHT22;5504;47.312;11.060;2023-07-29T03:35:15;18.30;99.50
10903;DHT22;5504;47.312;11.060;2023-07-29T03:37:41;18.10;99.00
10903;DHT22;5504;47.312;11.060;2023-07-29T03:40:07;17.90;99.20
10903;DHT22;5504;47.312;11.060;2023-07-29T03:42:33;17.90;99.30
10903;DHT22;5504;47.312;11.060;2023-07-29T03:44:59;18.00;99.70
10903;DHT22;5504;47.312;11.060;2023-07-29T03:47:24;18.00;99.70
10903;DHT22;5504;47.312;11.060;2023-07-29T03:49:50;18.00;99.50
10903;DHT22;5504;47.312;11.060;2023-07-29T03:52:16;18.10;99.80
10903;DHT22;5504;47.312;11.060;2023-07-29T03:54:41;18.10;99.60
10903;DHT22;5504;47.312;11.060;2023-07-29T03:57:07;18.10;99.60
10903;DHT22;5504;47.312;11.060;2023-07-29T03:59:33;18.10;99.60
10903;DHT22;5504;47.312;11.060;2023-07-29T04:01:59;18.00;99.50
10903;DHT22;5504;47.312;11.060;2023-07-29T04:04:24;18.00;99.30
10903;DHT22;5504;47.312;11.060;2023-07-29T04:06:50;18.10;99.50
10903;DHT22;5504;47.312;11.060;2023-07-29T04:09:16;18.20;99.30
10903;DHT22;5504;47.312;11.060;2023-07-29T04:11:42;18.20;99.30
10903;DHT22;5504;47.312;11.060;2023-07-29T04:14:07;18.10;99.20
10903;DHT22;5504;47.312;11.060;2023-07-29T04:16:33;18.10;99.40
10903;DHT22;5504;47.312;11.060;2023-07-29T04:18:59;18.20;99.60
10903;DHT22;5504;47.312;11.060;2023-07-29T04:21:24;18.20;99.50
10903;DHT22;5504;47.312;11.060;2023-07-29T04:23:50;18.20;99.50
10903;DHT22;5504;47.312;11.060;2023-07-29T04:26:16;18.30;99.30
10903;DHT22;5504;47.312;11.060;2023-07-29T04:28:42;18.20;99.10
10903;DHT22;5504;47.312;11.060;2023-07-29T04:31:08;18.20;99.10
10903;DHT22;5504;47.312;11.060;2023-07-29T04:33:34;18.20;99.40
10903;DHT22;5504;47.312;11.060;2023-07-29T04:35:59;18.20;99.50
10903;DHT22;5504;47.312;11.060;2023-07-29T04:38:31;18.30;99.50
10903;DHT22;5504;47.312;11.060;2023-07-29T04:41:00;18.30;99.20
10903;DHT22;5504;47.312;11.060;2023-07-29T04:43:31;18.30;99.00
10903;DHT22;5504;47.312;11.060;2023-07-29T04:45:57;18.40;98.90
10903;DHT22;5504;47.312;11.060;2023-07-29T04:48:23;18.40;98.90
10903;DHT22;5504;47.312;11.060;2023-07-29T04:50:49;18.30;99.00
10903;DHT22;5504;47.312;11.060;2023-07-29T04:53:15;18.30;99.30
10903;DHT22;5504;47.312;11.060;2023-07-29T04:55:42;18.30;99.20
10903;DHT22;5504;47.312;11.060;2023-07-29T04:58:08;18.30;99.30
10903;DHT22;5504;47.312;11.060;2023-07-29T05:00:34;18.30;99.50
10903;DHT22;5504;47.312;11.060;2023-07-29T05:03:00;18.40;99.70
10903;DHT22;5504;47.312;11.060;2023-07-29T05:05:27;18.40;99.50
10903;DHT22;5504;47.312;11.060;2023-07-29T05:07:52;18.30;99.00
10903;DHT22;5504;47.312;11.060;2023-07-29T05:10:18;18.40;99.40
10903;DHT22;5504;47.312;11.060;2023-07-29T05:12:44;18.50;99.50
10903;DHT22;5504;47.312;11.060;2023-07-29T05:15:10;18.50;99.30
10903;DHT22;5504;47.312;11.060;2023-07-29T05:17:36;18.60;99.20
10903;DHT22;5504;47.312;11.060;2023-07-29T05:20:01;18.50;99.30
10903;DHT22;5504;47.312;11.060;2023-07-29T05:22:28;18.50;99.50
10903;DHT22;5504;47.312;11.060;2023-07-29T05:24:53;18.60;99.60
10903;DHT22;5504;47.312;11.060;2023-07-29T05:27:19;18.70;99.20
10903;DHT22;5504;47.312;11.060;2023-07-29T05:29:45;18.90;99.10
10903;DHT22;5504;47.312;11.060;2023-07-29T05:32:10;18.90;98.70
10903;DHT22;5504;47.312;11.060;2023-07-29T05:34:36;19.00;98.50
10903;DHT22;5504;47.312;11.060;2023-07-29T05:37:02;19.00;98.50
10903;DHT22;5504;47.312;11.060;2023-07-29T05:39:28;19.00;98.50
10903;DHT22;5504;47.312;11.060;2023-07-29T05:41:53;18.90;98.20
10903;DHT22;5504;47.312;11.060;2023-07-29T05:44:19;18.70;98.50
10903;DHT22;5504;47.312;11.060;2023-07-29T05:46:45;18.60;98.70
10903;DHT22;5504;47.312;11.060;2023-07-29T05:49:11;18.40;98.80
10903;DHT22;5504;47.312;11.060;2023-07-29T05:51:37;18.50;99.30
10903;DHT22;5504;47.312;11.060;2023-07-29T05:54:03;18.70;99.60
10903;DHT22;5504;47.312;11.060;2023-07-29T05:56:29;18.80;99.40
10903;DHT22;5504;47.312;11.060;2023-07-29T05:58:56;18.90;99.10
10903;DHT22;5504;47.312;11.060;2023-07-29T06:01:22;19.00;98.90
10903;DHT22;5504;47.312;11.060;2023-07-29T06:03:48;18.90;98.50
10903;DHT22;5504;47.312;11.060;2023-07-29T06:06:15;19.10;98.80
10903;DHT22;5504;47.312;11.060;2023-07-29T06:08:41;19.40;98.40
10903;DHT22;5504;47.312;11.060;2023-07-29T06:11:06;19.50;98.20
10903;DHT22;5504;47.312;11.060;2023-07-29T06:13:32;19.50;98.10
10903;DHT22;5504;47.312;11.060;2023-07-29T06:15:58;19.50;98.00
10903;DHT22;5504;47.312;11.060;2023-07-29T06:18:24;19.60;98.00
10903;DHT22;5504;47.312;11.060;2023-07-29T06:20:51;19.60;97.70
10903;DHT22;5504;47.312;11.060;2023-07-29T06:23:16;19.50;97.70
10903;DHT22;5504;47.312;11.060;2023-07-29T06:25:42;19.50;98.10
10903;DHT22;5504;47.312;11.060;2023-07-29T06:28:09;19.50;98.20
10903;DHT22;5504;47.312;11.060;2023-07-29T06:30:35;19.50;98.00
10903;DHT22;5504;47.312;11.060;2023-07-29T06:33:01;19.50;97.40
10903;DHT22;5504;47.312;11.060;2023-07-29T06:35:28;19.50;97.40
10903;DHT22;5504;47.312;11.060;2023-07-29T06:37:54;19.50;97.50
10903;DHT22;5504;47.312;11.060;2023-07-29T06:40:20;19.50;97.60
10903;DHT22;5504;47.312;11.060;2023-07-29T06:42:45;19.50;97.60
10903;DHT22;5504;47.312;11.060;2023-07-29T06:45:11;19.50;97.50
10903;DHT22;5504;47.312;11.060;2023-07-29T06:47:37;19.60;97.70
10903;DHT22;5504;47.312;11.060;2023-07-29T06:50:03;19.60;97.80
10903;DHT22;5504;47.312;11.060;2023-07-29T06:52:29;19.70;97.80
10903;DHT22;5504;47.312;11.060;2023-07-29T06:54:54;19.80;98.00
10903;DHT22;5504;47.312;11.060;2023-07-29T06:57:20;19.90;97.80
10903;DHT22;5504;47.312;11.060;2023-07-29T06:59:46;19.80;96.90
10903;DHT22;5504;47.312;11.060;2023-07-29T07:02:12;19.50;96.50
10903;DHT22;5504;47.312;11.060;2023-07-29T07:04:37;19.60;97.40
10903;DHT22;5504;47.312;11.060;2023-07-29T07:07:03;19.70;97.80
10903;DHT22;5504;47.312;11.060;2023-07-29T07:09:29;19.90;97.70
10903;DHT22;5504;47.312;11.060;2023-07-29T07:11:54;20.30;98.00
10903;DHT22;5504;47.312;11.060;2023-07-29T07:14:20;20.50;97.10
10903;DHT22;5504;47.312;11.060;2023-07-29T07:16:46;20.50;96.30
10903;DHT22;5504;47.312;11.060;2023-07-29T07:19:11;20.40;95.80
10903;DHT22;5504;47.312;11.060;2023-07-29T07:21:37;20.40;96.30
10903;DHT22;5504;47.312;11.060;2023-07-29T07:24:03;20.20;95.80
10903;DHT22;5504;47.312;11.060;2023-07-29T07:26:28;20.20;96.40
10903;DHT22;5504;47.312;11.060;2023-07-29T07:28:54;20.30;96.80
10903;DHT22;5504;47.312;11.060;2023-07-29T07:31:20;20.30;96.40
10903;DHT22;5504;47.312;11.060;2023-07-29T07:33:45;20.30;95.80
10903;DHT22;5504;47.312;11.060;2023-07-29T07:36:11;20.40;95.50
10903;DHT22;5504;47.312;11.060;2023-07-29T07:38:37;20.50;95.90
10903;DHT22;5504;47.312;11.060;2023-07-29T07:41:02;20.40;95.90
10903;DHT22;5504;47.312;11.060;2023-07-29T07:43:28;20.40;95.90
10903;DHT22;5504;47.312;11.060;2023-07-29T07:45:58;20.40;95.60
10903;DHT22;5504;47.312;11.060;2023-07-29T07:48:25;20.50;96.10
10903;DHT22;5504;47.312;11.060;2023-07-29T07:50:51;20.70;96.40
10903;DHT22;5504;47.312;11.060;2023-07-29T07:53:16;20.70;95.90
10903;DHT22;5504;47.312;11.060;2023-07-29T07:55:42;20.80;95.70
10903;DHT22;5504;47.312;11.060;2023-07-29T07:58:07;20.80;95.90
10903;DHT22;5504;47.312;11.060;2023-07-29T08:00:33;20.80;96.00
10903;DHT22;5504;47.312;11.060;2023-07-29T08:02:59;20.80;96.30
10903;DHT22;5504;47.312;11.060;2023-07-29T08:05:24;20.70;95.80
10903;DHT22;5504;47.312;11.060;2023-07-29T08:07:50;20.70;96.50
10903;DHT22;5504;47.312;11.060;2023-07-29T08:10:16;20.70;96.60
10903;DHT22;5504;47.312;11.060;2023-07-29T08:12:42;20.60;96.00
10903;DHT22;5504;47.312;11.060;2023-07-29T08:15:07;20.60;96.20
10903;DHT22;5504;47.312;11.060;2023-07-29T08:17:33;20.60;96.00
10903;DHT22;5504;47.312;11.060;2023-07-29T08:19:59;20.40;95.90
10903;DHT22;5504;47.312;11.060;2023-07-29T08:22:24;20.50;96.10
10903;DHT22;5504;47.312;11.060;2023-07-29T08:24:50;20.60;95.80
10903;DHT22;5504;47.312;11.060;2023-07-29T08:27:16;20.50;95.70
10903;DHT22;5504;47.312;11.060;2023-07-29T08:29:41;20.50;96.50
10903;DHT22;5504;47.312;11.060;2023-07-29T08:32:07;20.60;96.10
10903;DHT22;5504;47.312;11.060;2023-07-29T08:34:33;20.60;95.80
10903;DHT22;5504;47.312;11.060;2023-07-29T08:36:59;20.70;95.90
10903;DHT22;5504;47.312;11.060;2023-07-29T08:39:25;20.60;95.20
10903;DHT22;5504;47.312;11.060;2023-07-29T08:41:54;20.60;95.00
10903;DHT22;5504;47.312;11.060;2023-07-29T08:44:23;20.70;96.20
10903;DHT22;5504;47.312;11.060;2023-07-29T08:46:49;21.10;96.80
10903;DHT22;5504;47.312;11.060;2023-07-29T08:49:16;21.50;95.00
10903;DHT22;5504;47.312;11.060;2023-07-29T08:51:48;21.20;93.60
10903;DHT22;5504;47.312;11.060;2023-07-29T08:54:15;21.90;93.60
10903;DHT22;5504;47.312;11.060;2023-07-29T08:56:42;21.40;92.90
10903;DHT22;5504;47.312;11.060;2023-07-29T08:59:09;21.30;93.90
10903;DHT22;5504;47.312;11.060;2023-07-29T09:01:34;22.00;94.90
10903;DHT22;5504;47.312;11.060;2023-07-29T09:04:00;21.80;93.10
10903;DHT22;5504;47.312;11.060;2023-07-29T09:06:26;21.90;93.20
10903;DHT22;5504;47.312;11.060;2023-07-29T09:08:54;22.60;95.50
10903;DHT22;5504;47.312;11.060;2023-07-29T09:11:22;23.50;94.60
10903;DHT22;5504;47.312;11.060;2023-07-29T09:13:48;24.30;92.80
10903;DHT22;5504;47.312;11.060;2023-07-29T09:16:14;24.90;91.20
10903;DHT22;5504;47.312;11.060;2023-07-29T09:18:40;23.30;87.40
10903;DHT22;5504;47.312;11.060;2023-07-29T09:21:06;23.40;90.40
10903;DHT22;5504;47.312;11.060;2023-07-29T09:23:42;23.80;91.80
10903;DHT22;5504;47.312;11.060;2023-07-29T09:26:08;24.30;91.20
10903;DHT22;5504;47.312;11.060;2023-07-29T09:28:36;24.60;84.70
10903;DHT22;5504;47.312;11.060;2023-07-29T09:31:02;24.90;89.10
10903;DHT22;5504;47.312;11.060;2023-07-29T09:33:29;25.30;88.70
10903;DHT22;5504;47.312;11.060;2023-07-29T09:35:57;25.00;85.20
10903;DHT22;5504;47.312;11.060;2023-07-29T09:38:27;25.20;88.20
10903;DHT22;5504;47.312;11.060;2023-07-29T09:40:56;24.90;83.80
10903;DHT22;5504;47.312;11.060;2023-07-29T09:43:29;25.60;88.00
10903;DHT22;5504;47.312;11.060;2023-07-29T09:46:04;26.10;85.10
10903;DHT22;5504;47.312;11.060;2023-07-29T09:48:37;26.30;84.20
10903;DHT22;5504;47.312;11.060;2023-07-29T09:51:13;26.70;83.30
10903;DHT22;5504;47.312;11.060;2023-07-29T09:53:44;25.60;79.60
10903;DHT22;5504;47.312;11.060;2023-07-29T09:56:10;25.70;83.20
10903;DHT22;5504;47.312;11.060;2023-07-29T09:58:38;25.50;85.10
10903;DHT22;5504;47.312;11.060;2023-07-29T10:01:08;25.70;88.00
10903;DHT22;5504;47.312;11.060;2023-07-29T10:03:34;26.00;87.30
10903;DHT22;5504;47.312;11.060;2023-07-29T10:06:06;26.30;86.20
10903;DHT22;5504;47.312;11.060;2023-07-29T10:08:33;25.90;82.70
10903;DHT22;5504;47.312;11.060;2023-07-29T10:11:06;26.00;84.00
10903;DHT22;5504;47.312;11.060;2023-07-29T10:13:33;25.60;80.00
10903;DHT22;5504;47.312;11.060;2023-07-29T10:15:59;25.70;83.50
10903;DHT22;5504;47.312;11.060;2023-07-29T10:18:28;26.20;85.00
10903;DHT22;5504;47.312;11.060;2023-07-29T10:20:56;26.40;81.90
10903;DHT22;5504;47.312;11.060;2023-07-29T10:23:22;26.10;80.90
10903;DHT22;5504;47.312;11.060;2023-07-29T10:26:05;26.00;82.50
10903;DHT22;5504;47.312;11.060;2023-07-29T10:28:32;25.30;80.50
10903;DHT22;5504;47.312;11.060;2023-07-29T10:30:58;25.00;81.00
10903;DHT22;5504;47.312;11.060;2023-07-29T10:33:27;25.00;83.40
10903;DHT22;5504;47.312;11.060;2023-07-29T10:35:53;25.20;87.00
10903;DHT22;5504;47.312;11.060;2023-07-29T10:38:24;25.50;81.30
10903;DHT22;5504;47.312;11.060;2023-07-29T10:40:55;25.70;84.00
10903;DHT22;5504;47.312;11.060;2023-07-29T10:43:35;26.20;83.90
10903;DHT22;5504;47.312;11.060;2023-07-29T10:46:35;26.70;83.30
10903;DHT22;5504;47.312;11.060;2023-07-29T10:49:01;26.90;79.00
10903;DHT22;5504;47.312;11.060;2023-07-29T10:51:37;27.30;82.90
10903;DHT22;5504;47.312;11.060;2023-07-29T10:54:13;27.80;83.50
10903;DHT22;5504;47.312;11.060;2023-07-29T10:56:46;28.10;79.40
10903;DHT22;5504;47.312;11.060;2023-07-29T11:01:42;27.60;76.60
10903;DHT22;5504;47.312;11.060;2023-07-29T11:12:35;26.70;79.10
10903;DHT22;5504;47.312;11.060;2023-07-29T11:15:12;26.60;80.80
10903;DHT22;5504;47.312;11.060;2023-07-29T11:17:58;26.30;79.70
10903;DHT22;5504;47.312;11.060;2023-07-29T11:20:29;26.20;81.80
10903;DHT22;5504;47.312;11.060;2023-07-29T11:22:57;26.30;80.20
10903;DHT22;5504;47.312;11.060;2023-07-29T11:25:24;26.50;80.20
10903;DHT22;5504;47.312;11.060;2023-07-29T11:27:55;26.80;82.30
10903;DHT22;5504;47.312;11.060;2023-07-29T11:30:21;27.30;83.80
10903;DHT22;5504;47.312;11.060;2023-07-29T11:32:48;27.20;78.80
10903;DHT22;5504;47.312;11.060;2023-07-29T11:35:17;27.40;78.80
10903;DHT22;5504;47.312;11.060;2023-07-29T11:37:48;27.60;79.90
10903;DHT22;5504;47.312;11.060;2023-07-29T11:40:18;27.50;76.00
10903;DHT22;5504;47.312;11.060;2023-07-29T11:42:49;27.80;78.50
10903;DHT22;5504;47.312;11.060;2023-07-29T11:45:19;27.70;78.20
10903;DHT22;5504;47.312;11.060;2023-07-29T11:47:46;27.70;79.90
10903;DHT22;5504;47.312;11.060;2023-07-29T11:50:12;27.60;79.00
10903;DHT22;5504;47.312;11.060;2023-07-29T11:52:44;27.50;82.00
10903;DHT22;5504;47.312;11.060;2023-07-29T11:55:12;27.40;76.20
10903;DHT22;5504;47.312;11.060;2023-07-29T11:57:38;27.40;81.40
10903;DHT22;5504;47.312;11.060;2023-07-29T12:00:06;27.30;80.60
10903;DHT22;5504;47.312;11.060;2023-07-29T12:02:42;27.20;77.30
10903;DHT22;5504;47.312;11.060;2023-07-29T12:05:12;27.40;79.70
10903;DHT22;5504;47.312;11.060;2023-07-29T12:07:38;27.70;80.90
10903;DHT22;5504;47.312;11.060;2023-07-29T12:10:05;27.90;77.10
10903;DHT22;5504;47.312;11.060;2023-07-29T12:12:31;28.10;77.20
10903;DHT22;5504;47.312;11.060;2023-07-29T12:14:57;28.30;77.20
10903;DHT22;5504;47.312;11.060;2023-07-29T12:17:23;27.90;69.50
10903;DHT22;5504;47.312;11.060;2023-07-29T12:19:49;27.20;77.60
10903;DHT22;5504;47.312;11.060;2023-07-29T12:22:18;27.70;81.70
10903;DHT22;5504;47.312;11.060;2023-07-29T12:24:45;27.70;71.50
10903;DHT22;5504;47.312;11.060;2023-07-29T12:27:12;27.70;69.30
10903;DHT22;5504;47.312;11.060;2023-07-29T12:29:44;28.30;73.20
10903;DHT22;5504;47.312;11.060;2023-07-29T12:32:11;29.10;74.40
10903;DHT22;5504;47.312;11.060;2023-07-29T12:34:38;29.40;69.50
10903;DHT22;5504;47.312;11.060;2023-07-29T12:37:07;29.20;67.90
10903;DHT22;5504;47.312;11.060;2023-07-29T12:39:35;29.60;70.80
10903;DHT22;5504;47.312;11.060;2023-07-29T12:42:02;29.60;64.70
10903;DHT22;5504;47.312;11.060;2023-07-29T12:44:33;29.30;66.10
10903;DHT22;5504;47.312;11.060;2023-07-29T12:47:00;29.30;68.90
10903;DHT22;5504;47.312;11.060;2023-07-29T12:49:26;29.60;71.30
10903;DHT22;5504;47.312;11.060;2023-07-29T12:51:53;29.50;67.70
10903;DHT22;5504;47.312;11.060;2023-07-29T12:54:19;29.30;67.60
10903;DHT22;5504;47.312;11.060;2023-07-29T12:56:45;29.50;68.30
10903;DHT22;5504;47.312;11.060;2023-07-29T12:59:10;29.40;69.00
10903;DHT22;5504;47.312;11.060;2023-07-29T13:01:36;29.30;69.80
10903;DHT22;5504;47.312;11.060;2023-07-29T13:04:02;29.30;71.70
10903;DHT22;5504;47.312;11.060;2023-07-29T13:06:27;29.20;71.70
10903;DHT22;5504;47.312;11.060;2023-07-29T13:08:53;29.00;70.50
10903;DHT22;5504;47.312;11.060;2023-07-29T13:11:19;28.60;64.60
10903;DHT22;5504;47.312;11.060;2023-07-29T13:13:44;28.40;62.70
10903;DHT22;5504;47.312;11.060;2023-07-29T13:16:11;28.30;67.30
10903;DHT22;5504;47.312;11.060;2023-07-29T13:18:37;28.20;71.30
10903;DHT22;5504;47.312;11.060;2023-07-29T13:21:03;28.00;76.50
10903;DHT22;5504;47.312;11.060;2023-07-29T13:23:28;27.90;74.50
10903;DHT22;5504;47.312;11.060;2023-07-29T13:25:55;27.60;77.20
10903;DHT22;5504;47.312;11.060;2023-07-29T13:28:21;27.50;75.40
10903;DHT22;5504;47.312;11.060;2023-07-29T13:30:47;27.20;79.10
10903;DHT22;5504;47.312;11.060;2023-07-29T13:33:12;27.00;80.10
10903;DHT22;5504;47.312;11.060;2023-07-29T13:35:38;26.90;80.00
10903;DHT22;5504;47.312;11.060;2023-07-29T13:38:04;26.60;82.00
10903;DHT22;5504;47.312;11.060;2023-07-29T13:40:30;26.40;84.00
10903;DHT22;5504;47.312;11.060;2023-07-29T13:42:55;26.20;84.90
10903;DHT22;5504;47.312;11.060;2023-07-29T13:45:21;26.00;85.80
10903;DHT22;5504;47.312;11.060;2023-07-29T13:47:48;25.80;86.70
10903;DHT22;5504;47.312;11.060;2023-07-29T13:50:14;25.60;87.60
10903;DHT22;5504;47.312;11.060;2023-07-29T13:52:39;25.40;88.10
10903;DHT22;5504;47.312;11.060;2023-07-29T13:55:05;25.20;89.20
10903;DHT22;5504;47.312;11.060;2023-07-29T13:57:32;25.00;90.40
10903;DHT22;5504;47.312;11.060;2023-07-29T13:59:57;24.80;91.00
10903;DHT22;5504;47.312;11.060;2023-07-29T14:02:23;24.70;91.40
10903;DHT22;5504;47.312;11.060;2023-07-29T14:04:49;24.50;91.50
10903;DHT22;5504;47.312;11.060;2023-07-29T14:07:15;24.40;91.40
10903;DHT22;5504;47.312;11.060;2023-07-29T14:09:41;24.30;91.90
10903;DHT22;5504;47.312;11.060;2023-07-29T14:12:08;24.10;92.30
10903;DHT22;5504;47.312;11.060;2023-07-29T14:14:38;24.00;92.10
10903;DHT22;5504;47.312;11.060;2023-07-29T14:17:03;23.90;92.60
10903;DHT22;5504;47.312;11.060;2023-07-29T14:19:29;23.90;93.00
10903;DHT22;5504;47.312;11.060;2023-07-29T14:21:55;23.90;93.40
10903;DHT22;5504;47.312;11.060;2023-07-29T14:24:21;23.90;93.00
10903;DHT22;5504;47.312;11.060;2023-07-29T14:26:48;23.70;93.20
10903;DHT22;5504;47.312;11.060;2023-07-29T14:29:13;23.60;92.50
10903;DHT22;5504;47.312;11.060;2023-07-29T14:31:39;23.40;92.60
10903;DHT22;5504;47.312;11.060;2023-07-29T14:34:05;23.20;92.00
10903;DHT22;5504;47.312;11.060;2023-07-29T14:36:30;23.10;92.70
10903;DHT22;5504;47.312;11.060;2023-07-29T14:38:56;22.90;92.80
10903;DHT22;5504;47.312;11.060;2023-07-29T14:41:22;22.90;93.40
10903;DHT22;5504;47.312;11.060;2023-07-29T14:43:47;22.80;93.80
10903;DHT22;5504;47.312;11.060;2023-07-29T14:46:13;22.80;93.60
10903;DHT22;5504;47.312;11.060;2023-07-29T14:48:39;22.70;93.70
10903;DHT22;5504;47.312;11.060;2023-07-29T14:51:04;22.60;93.90
10903;DHT22;5504;47.312;11.060;2023-07-29T14:53:30;22.60;93.80
10903;DHT22;5504;47.312;11.060;2023-07-29T14:55:56;22.60;93.90
10903;DHT22;5504;47.312;11.060;2023-07-29T14:58:21;22.50;93.90
10903;DHT22;5504;47.312;11.060;2023-07-29T15:00:48;22.30;94.20
10903;DHT22;5504;47.312;11.060;2023-07-29T15:03:14;22.30;95.20
10903;DHT22;5504;47.312;11.060;2023-07-29T15:05:40;22.30;95.40
10903;DHT22;5504;47.312;11.060;2023-07-29T15:08:06;22.30;95.80
10903;DHT22;5504;47.312;11.060;2023-07-29T15:10:32;22.30;95.80
10903;DHT22;5504;47.312;11.060;2023-07-29T15:12:57;22.20;95.50
10903;DHT22;5504;47.312;11.060;2023-07-29T15:15:23;22.20;95.00
10903;DHT22;5504;47.312;11.060;2023-07-29T15:17:49;22.10;93.60
10903;DHT22;5504;47.312;11.060;2023-07-29T15:20:14;21.90;94.10
10903;DHT22;5504;47.312;11.060;2023-07-29T15:22:40;21.80;93.40
10903;DHT22;5504;47.312;11.060;2023-07-29T15:25:08;21.80;94.10
10903;DHT22;5504;47.312;11.060;2023-07-29T15:27:35;21.50;93.40
10903;DHT22;5504;47.312;11.060;2023-07-29T15:30:01;21.40;93.70
10903;DHT22;5504;47.312;11.060;2023-07-29T15:32:26;21.30;93.90
10903;DHT22;5504;47.312;11.060;2023-07-29T15:34:53;21.30;94.00
10903;DHT22;5504;47.312;11.060;2023-07-29T15:37:19;21.30;94.30
10903;DHT22;5504;47.312;11.060;2023-07-29T15:39:45;21.30;94.30
10903;DHT22;5504;47.312;11.060;2023-07-29T15:42:10;21.00;94.60
10903;DHT22;5504;47.312;11.060;2023-07-29T15:44:36;20.90;95.00
10903;DHT22;5504;47.312;11.060;2023-07-29T15:47:03;20.90;95.80